Historique des mesures à Cassis (13260), France
Quotidien Résumé Avril 19, 2017 Unités:  Métrique    US   Métrique/US
« Précédent (Jour)
Suivant (Jour) »
Quotidien Hebdomadaire Mensuel Annuel Période au choix
  Maximum: Minimum: Moyenne:
Température: TemperatureC °C 8.7 °C 12.6 °C
Point de rosée: DewpointC °C -5.1 °C -2.1 °C
Humidité: Humidity % 29 % 34 %
Vitesse du vent: 0 km/h 0 km/h 13.5 km/h
Rafales: 0 km/h - -
Vent:- - South
Pression: PressurehPa hPa 1013.8 hPa -
Précipitations: 0.0 mm    
Historical Graphs
 
 
Mesures pour : Avril 19, 2017
Heure Temperature Point de rosée Pression Vent Vitesse du vent Rafales Humidité Pluie (par heure) Conditions
TemperatureC °C DewpointC °C PressurehPa hPa Calm     Humidity % HourlyPrecipMM mm SoftwareType W/m2
00:11 11.3 °C -4.9 °C 1013.8 hPa North 11.6 km/h 17.9 km/h 32 % 0.0 mm open2300-1.11 W/m2
01:11 11.1 °C -5.1 °C 1014.1 hPa NNW 16.3 km/h 16.3 km/h 32 % 0.0 mm open2300-1.11 W/m2
02:11 10.6 °C -4.7 °C 1014.8 hPa NNW 12.2 km/h 12.2 km/h 34 % 0.0 mm open2300-1.11 W/m2
03:11 9.6 °C -4.9 °C 1014.8 hPa North 8 km/h 13.2 km/h 36 % 0.0 mm open2300-1.11 W/m2
04:10 9.3 °C -4.7 °C 1014.8 hPa NNW 10.9 km/h 44.1 km/h 37 % 0.0 mm open2300-1.11 W/m2
05:11 8.8 °C -4.4 °C 1015.1 hPa Calm   6.4 km/h 39 % 0.0 mm open2300-1.11 W/m2
06:10 8.8 °C -4.8 °C 1014.8 hPa North 2.3 km/h 9.8 km/h 38 % 0.0 mm open2300-1.11 W/m2
07:11 8.7 °C -4.9 °C 1015.5 hPa North 8 km/h 10.3 km/h 38 % 0.0 mm open2300-1.11 W/m2
08:11 10.3 °C -3.5 °C 1015.8 hPa NNW 3.4 km/h 6.9 km/h 38 % 0.0 mm open2300-1.11 W/m2
09:10 11.6 °C -1.9 °C 1016.1 hPa NW 4.7 km/h 10.3 km/h 39 % 0.0 mm open2300-1.11 W/m2
10:11 12.6 °C -0.7 °C 1016.5 hPa NW 15 km/h 17.9 km/h 40 % 0.0 mm open2300-1.11 W/m2
11:10 15.5 °C 1.6 °C 1016.5 hPa WNW 13.2 km/h 13.2 km/h 39 % 0.0 mm open2300-1.11 W/m2
12:11 17.3 °C 1.6 °C 1016.8 hPa SSW 4.2 km/h 11.6 km/h 35 % 0.0 mm open2300-1.11 W/m2
13:11 17.2 °C 0.7 °C 1016.8 hPa SSE 3.4 km/h 6.4 km/h 33 % 0.0 mm open2300-1.11 W/m2
14:11 17.1 °C 0.6 °C 1016.5 hPa WSW 22 km/h 22 km/h 33 % 0.0 mm open2300-1.11 W/m2
15:11 17.3 °C 0.8 °C 1016.1 hPa NNW 20.9 km/h 20.9 km/h 33 % 0.0 mm open2300-1.11 W/m2
16:11 16.8 °C -0.1 °C 1015.5 hPa NNE 1.8 km/h 22 km/h 32 % 0.0 mm open2300-1.11 W/m2
17:11 17.3 °C -0.4 °C 1014.8 hPa West 27.2 km/h 27.2 km/h 30 % 0.0 mm open2300-1.11 W/m2
18:11 16.6 °C -1.6 °C 1014.4 hPa NNE 24.3 km/h 31.9 km/h 29 % 0.0 mm open2300-1.11 W/m2
19:10 15.6 °C -1.9 °C 1014.1 hPa North 19.2 km/h 23 km/h 30 % 0.0 mm open2300-1.11 W/m2
20:11 14.2 °C -2.3 °C 1014.8 hPa North 35.2 km/h 36.5 km/h 32 % 0.0 mm open2300-1.11 W/m2
21:10 13.0 °C -2.2 °C 1015.5 hPa North 15.6 km/h 47.3 km/h 35 % 0.0 mm open2300-1.11 W/m2
22:11 12.2 °C -3.3 °C 1016.1 hPa NW 57.3 km/h 57.3 km/h 34 % 0.0 mm open2300-1.11 W/m2
23:11 11.8 °C -0.8 °C 1018.5 hPa Calm     42 % 0.0 mm open2300-1.11 W/m2
Observations météo à CASSIS
WU-History script by Weather Underground - 1 mb